createdAt,value
2023-04-02T00:00:19.664Z,100313.2
2023-04-02T00:01:25.090Z,100311.77
2023-04-02T00:02:30.834Z,100317.65
2023-04-02T00:03:36.850Z,100311.03
2023-04-02T00:04:42.435Z,100312.78
2023-04-02T00:05:47.795Z,100316.13
2023-04-02T00:06:53.164Z,100319.88
2023-04-02T00:07:58.590Z,100318.13
2023-04-02T00:09:04.011Z,100314.04
2023-04-02T00:10:09.394Z,100318.21
2023-04-02T00:11:14.779Z,100317.8
2023-04-02T00:12:20.162Z,100319.99
2023-04-02T00:13:25.548Z,100329.84
2023-04-02T00:14:30.926Z,100319.88
2023-04-02T00:15:36.765Z,100324.83
2023-04-02T00:16:42.402Z,100329.17
2023-04-02T00:17:47.993Z,100323
2023-04-02T00:18:53.382Z,100325.57
2023-04-02T00:19:58.738Z,100325.57
2023-04-02T00:21:04.140Z,100331.85
2023-04-02T00:22:09.580Z,100330.1
2023-04-02T00:23:14.933Z,100333.19
2023-04-02T00:24:20.294Z,100327.77
2023-04-02T00:25:25.703Z,100330.7
2023-04-02T00:26:31.090Z,100334.7
2023-04-02T00:27:36.490Z,100335.78
2023-04-02T00:28:41.939Z,100334.27
2023-04-02T00:29:47.332Z,100342.14
2023-04-02T00:30:52.763Z,100338.05
2023-04-02T00:31:58.257Z,100342.3
2023-04-02T00:33:03.728Z,100335.13
2023-04-02T00:34:09.167Z,100336.53
2023-04-02T00:35:14.575Z,100337.95
2023-04-02T00:36:20.094Z,100338.87
2023-04-02T00:37:25.589Z,100337.53
2023-04-02T00:38:31.007Z,100339.63
2023-04-02T00:39:36.404Z,100343.23
2023-04-02T00:40:41.810Z,100343.82
2023-04-02T00:41:47.222Z,100336.27
2023-04-02T00:42:52.632Z,100334.03
2023-04-02T00:43:58.021Z,100334.19
2023-04-02T00:45:03.435Z,100338.05
2023-04-02T00:46:08.952Z,100353.11
2023-04-02T00:47:14.407Z,100336.6
2023-04-02T00:48:19.787Z,100338.72
2023-04-02T00:49:25.233Z,100342.55
2023-04-02T00:50:30.589Z,100337.27
2023-04-02T00:51:35.986Z,100343.22
2023-04-02T00:52:41.379Z,100347.56
2023-04-02T00:53:46.750Z,100341.95
2023-04-02T00:54:52.191Z,100352.02
2023-04-02T00:55:57.552Z,100353.84
2023-04-02T00:57:03.028Z,100352.09
2023-04-02T00:58:08.434Z,100354.25
2023-04-02T00:59:13.812Z,100358.94
2023-04-02T01:00:19.217Z,100358.53
2023-04-02T01:01:24.932Z,100354.59
2023-04-02T01:02:31.104Z,100355.59
2023-04-02T01:03:38.153Z,100347.23
2023-04-02T01:04:44.288Z,100356.86
2023-04-02T01:05:49.784Z,100350.83
2023-04-02T01:06:55.188Z,100363.53
2023-04-02T01:08:00.626Z,100352.91
2023-04-02T01:09:06.008Z,100356.42
2023-04-02T01:10:11.459Z,100359.51
2023-04-02T01:11:17.143Z,100351.73
2023-04-02T01:12:22.523Z,100350.14
2023-04-02T01:13:27.891Z,100361.7
2023-04-02T01:14:33.278Z,100359.51
2023-04-02T01:15:39.296Z,100353.07
2023-04-02T01:16:44.720Z,100361.17
2023-04-02T01:17:50.336Z,100364.39
2023-04-02T01:18:55.762Z,100358.78
2023-04-02T01:20:01.119Z,100364.8
2023-04-02T01:21:06.584Z,100366.41
2023-04-02T01:22:11.933Z,100363.81
2023-04-02T01:23:17.320Z,100369.84
2023-04-02T01:24:22.688Z,100358.13
2023-04-02T01:25:28.059Z,100371
2023-04-02T01:26:33.494Z,100370.07
2023-04-02T01:27:38.884Z,100370.98
2023-04-02T01:28:44.288Z,100370.98
2023-04-02T01:29:49.686Z,100374
2023-04-02T01:30:55.075Z,100372.58
2023-04-02T01:32:00.547Z,100371.58
2023-04-02T01:33:08.748Z,100379.67
2023-04-02T01:34:14.228Z,100383.02
2023-04-02T01:35:19.672Z,100378.59
2023-04-02T01:36:25.051Z,100391.16
2023-04-02T01:37:30.415Z,100383.22
2023-04-02T01:38:35.749Z,100378.34
2023-04-02T01:39:41.161Z,100387.3
2023-04-02T01:40:46.527Z,100391.83
2023-04-02T01:41:51.902Z,100389.91
2023-04-02T01:42:57.285Z,100395.67
2023-04-02T01:44:03.698Z,100401.19
2023-04-02T01:45:11.522Z,100398.66
2023-04-02T01:46:16.972Z,100394.23
2023-04-02T01:47:22.396Z,100393.56
2023-04-02T01:48:27.794Z,100398.17
2023-04-02T01:49:33.142Z,100403.53
2023-04-02T01:50:38.852Z,100397.23
2023-04-02T01:51:44.236Z,100394.15
2023-04-02T01:52:49.609Z,100388.47
2023-04-02T01:53:54.963Z,100400.19
2023-04-02T01:55:00.336Z,100407.63
2023-04-02T01:56:05.725Z,100403.54
2023-04-02T01:57:11.222Z,100412.47
2023-04-02T01:58:16.624Z,100410.38
2023-04-02T01:59:22.015Z,100414.13
2023-04-02T02:00:27.407Z,100412.22
2023-04-02T02:01:32.853Z,100409.28
2023-04-02T02:02:38.533Z,100416.58
2023-04-02T02:03:44.172Z,100405.42
2023-04-02T02:04:49.579Z,100416.56
2023-04-02T02:05:54.935Z,100417.47
2023-04-02T02:07:00.304Z,100417.45
2023-04-02T02:08:05.715Z,100420.65
2023-04-02T02:09:11.054Z,100420.98
2023-04-02T02:10:16.477Z,100423.33
2023-04-02T02:11:21.912Z,100412.02
2023-04-02T02:12:27.323Z,100421.72
2023-04-02T02:13:32.684Z,100424.66
2023-04-02T02:14:38.029Z,100425.08
2023-04-02T02:15:43.443Z,100421.64
2023-04-02T02:16:48.876Z,100428.61
2023-04-02T02:17:54.484Z,100422.39
2023-04-02T02:18:59.955Z,100431.19
2023-04-02T02:20:05.433Z,100429.42
2023-04-02T02:21:10.877Z,100435.97
2023-04-02T02:22:16.245Z,100440.13
2023-04-02T02:23:21.574Z,100428.36
2023-04-02T02:24:26.975Z,100433.03
2023-04-02T02:25:32.769Z,100437.98
2023-04-02T02:26:38.766Z,100442.33
2023-04-02T02:27:44.145Z,100447.34
2023-04-02T02:28:49.489Z,100450.16
2023-04-02T02:29:55.532Z,100454.6
2023-04-02T02:31:01.138Z,100456.03
2023-04-02T02:32:06.625Z,100449.34
2023-04-02T02:33:12.093Z,100450.91
2023-04-02T02:34:17.466Z,100458.14
2023-04-02T02:35:22.924Z,100456.45
2023-04-02T02:36:28.346Z,100454.11
2023-04-02T02:37:33.774Z,100456.78
2023-04-02T02:38:39.158Z,100457.19
2023-04-02T02:39:44.555Z,100458.94
2023-04-02T02:40:49.952Z,100458.05
2023-04-02T02:41:55.296Z,100462.06
2023-04-02T02:43:00.725Z,100460.12
2023-04-02T02:44:06.100Z,100457.1
2023-04-02T02:45:11.479Z,100463.2
2023-04-02T02:46:17.097Z,100445.14
2023-04-02T02:47:22.590Z,100460.05
2023-04-02T02:48:28.112Z,100467.48
2023-04-02T02:49:33.541Z,100469.05
2023-04-02T02:50:38.959Z,100471.88
2023-04-02T02:51:44.350Z,100465.45
2023-04-02T02:52:49.763Z,100467.64
2023-04-02T02:53:55.118Z,100469.98
2023-04-02T02:55:00.569Z,100472.31
2023-04-02T02:56:05.979Z,100474.21
2023-04-02T02:57:11.475Z,100479.52
2023-04-02T02:58:16.956Z,100477.16
2023-04-02T02:59:22.308Z,100475.48
2023-04-02T03:00:27.778Z,100489.3
2023-04-02T03:01:35.747Z,100483.45
2023-04-02T03:02:41.356Z,100484.53
2023-04-02T03:03:47.521Z,100487.81
2023-04-02T03:04:53.443Z,100493.84
2023-04-02T03:05:58.839Z,100489.17
2023-04-02T03:07:04.228Z,100487.91
2023-04-02T03:08:09.594Z,100489.66
2023-04-02T03:09:14.984Z,100500.09
2023-04-02T03:10:20.347Z,100495.59
2023-04-02T03:11:25.749Z,100488.05
2023-04-02T03:12:32.194Z,100496.3
2023-04-02T03:13:37.657Z,100499.25
2023-04-02T03:14:43.058Z,100495.57
2023-04-02T03:15:48.493Z,100493.14
2023-04-02T03:16:53.941Z,100497.84
2023-04-02T03:17:59.400Z,100494.23
2023-04-02T03:19:04.866Z,100497.98
2023-04-02T03:20:10.238Z,100506.28
2023-04-02T03:21:15.644Z,100504.84
2023-04-02T03:22:21.042Z,100503.58
2023-04-02T03:23:26.398Z,100492.46
2023-04-02T03:24:31.785Z,100511.29
2023-04-02T03:25:37.595Z,100513.45
2023-04-02T03:26:43.087Z,100511.46
2023-04-02T03:27:48.444Z,100505.69
2023-04-02T03:28:53.809Z,100521.17
2023-04-02T03:29:59.190Z,100515.72
2023-04-02T03:31:04.713Z,100515.37
2023-04-02T03:32:10.198Z,100510.3
2023-04-02T03:33:15.565Z,100507.18
2023-04-02T03:34:20.980Z,100516.48
2023-04-02T03:35:26.482Z,100522.31
2023-04-02T03:36:31.887Z,100525.33
2023-04-02T03:37:37.292Z,100528.25
2023-04-02T03:38:42.675Z,100532.75
2023-04-02T03:39:48.048Z,100529.17
2023-04-02T03:40:53.447Z,100533.77
2023-04-02T03:41:58.839Z,100532.97
2023-04-02T03:43:04.238Z,100531.63
2023-04-02T03:44:09.616Z,100538.3
2023-04-02T03:45:15.025Z,100543.36
2023-04-02T03:46:20.385Z,100540.88
2023-04-02T03:47:25.904Z,100546.13
2023-04-02T03:48:31.324Z,100544.77
2023-04-02T03:49:36.749Z,100552.14
2023-04-02T03:50:42.139Z,100545.45
2023-04-02T03:51:47.493Z,100552.75
2023-04-02T03:52:52.859Z,100558.93
2023-04-02T03:53:58.250Z,100558.61
2023-04-02T03:55:03.690Z,100561.41
2023-04-02T03:56:09.089Z,100569.7
2023-04-02T03:57:14.559Z,100571.31
2023-04-02T03:58:21.000Z,100564.38
2023-04-02T03:59:26.397Z,100580.34
2023-04-02T04:00:31.849Z,100573.69
2023-04-02T04:01:37.379Z,100587.66
2023-04-02T04:02:42.884Z,100567.83
2023-04-02T04:03:48.466Z,100576.78
2023-04-02T04:04:53.915Z,100580.72
2023-04-02T04:05:59.334Z,100580.2
2023-04-02T04:07:04.713Z,100584.22
2023-04-02T04:08:10.122Z,100578.11
2023-04-02T04:09:15.473Z,100589.72
2023-04-02T04:10:20.875Z,100597.6
2023-04-02T04:11:26.446Z,100589.91
2023-04-02T04:12:32.018Z,100598.49
2023-04-02T04:13:37.379Z,100598.45
2023-04-02T04:14:45.453Z,100599.28
2023-04-02T04:15:50.839Z,100605.45
2023-04-02T04:16:56.351Z,100612.83
2023-04-02T04:18:01.880Z,100608.41
2023-04-02T04:19:07.365Z,100606.08
2023-04-02T04:20:12.788Z,100610.16
2023-04-02T04:21:18.155Z,100610.98
2023-04-02T04:22:23.576Z,100618.66
2023-04-02T04:23:28.932Z,100613.95
2023-04-02T04:24:34.301Z,100615.41
2023-04-02T04:25:39.662Z,100621.16
2023-04-02T04:26:45.058Z,100624.3
2023-04-02T04:27:50.464Z,100620.91
2023-04-02T04:28:55.851Z,100628.22
2023-04-02T04:30:01.291Z,100630.28
2023-04-02T04:31:06.686Z,100626.71
2023-04-02T04:32:12.120Z,100630.25
2023-04-02T04:33:17.752Z,100628.02
2023-04-02T04:34:23.131Z,100628.37
2023-04-02T04:35:28.703Z,100631.25
2023-04-02T04:36:34.127Z,100641.4
2023-04-02T04:37:40.599Z,100636.8
2023-04-02T04:38:47.519Z,100630.51
2023-04-02T04:39:52.900Z,100638.16
2023-04-02T04:40:58.275Z,100637.57
2023-04-02T04:42:03.661Z,100639.06
2023-04-02T04:43:09.073Z,100639.41
2023-04-02T04:44:14.655Z,100643.95
2023-04-02T04:45:20.052Z,100649.02
2023-04-02T04:46:25.603Z,100647.08
2023-04-02T04:47:31.288Z,100647.02
2023-04-02T04:48:37.898Z,100651.86
2023-04-02T04:49:43.278Z,100651.72
2023-04-02T04:50:48.636Z,100653.47
2023-04-02T04:51:54.037Z,100646.24
2023-04-02T04:52:59.403Z,100642.22
2023-04-02T04:54:04.760Z,100656.08
2023-04-02T04:55:10.111Z,100653.54
2023-04-02T04:56:20.970Z,100662.59
2023-04-02T04:57:26.442Z,100659.57
2023-04-02T04:58:31.913Z,100657.41
2023-04-02T04:59:37.288Z,100669.41
2023-04-02T05:00:42.671Z,100669.73
2023-04-02T05:01:49.140Z,100669.88
2023-04-02T05:02:54.891Z,100674.53
2023-04-02T05:04:00.348Z,100668.01
2023-04-02T05:05:05.880Z,100680.64
2023-04-02T05:06:11.305Z,100670.68
2023-04-02T05:07:16.702Z,100672.27
2023-04-02T05:08:22.092Z,100684.48
2023-04-02T05:09:27.469Z,100684.22
2023-04-02T05:10:33.181Z,100683.8
2023-04-02T05:11:38.564Z,100688.55
2023-04-02T05:12:44.958Z,100683.95
2023-04-02T05:13:50.323Z,100690.39
2023-04-02T05:14:55.751Z,100691.98
2023-04-02T05:16:02.827Z,100695.39
2023-04-02T05:17:08.272Z,100695.3
2023-04-02T05:18:13.667Z,100695.97
2023-04-02T05:19:19.051Z,100696.03
2023-04-02T05:20:24.432Z,100695.95
2023-04-02T05:21:29.822Z,100696.77
2023-04-02T05:22:35.202Z,100699.22
2023-04-02T05:23:42.014Z,100702.63
2023-04-02T05:24:47.395Z,100709.5
2023-04-02T05:25:52.776Z,100699.78
2023-04-02T05:26:58.163Z,100703.46
2023-04-02T05:28:03.545Z,100713.06
2023-04-02T05:29:09.002Z,100712.03
2023-04-02T05:30:14.386Z,100707.6
2023-04-02T05:31:19.861Z,100706.27
2023-04-02T05:32:25.417Z,100717.91
2023-04-02T05:33:30.843Z,100713.48
2023-04-02T05:34:36.313Z,100718.84
2023-04-02T05:35:41.713Z,100714.2
2023-04-02T05:36:47.178Z,100717.3
2023-04-02T05:37:52.609Z,100721.49
2023-04-02T05:38:57.994Z,100723.42
2023-04-02T05:40:03.431Z,100720.47
2023-04-02T05:41:08.787Z,100722.73
2023-04-02T05:42:14.157Z,100720.12
2023-04-02T05:43:19.564Z,100728.65
2023-04-02T05:44:24.952Z,100719.93
2023-04-02T05:45:30.306Z,100724.95
2023-04-02T05:46:35.776Z,100730.41
2023-04-02T05:47:41.430Z,100733.33
2023-04-02T05:48:46.910Z,100738.45
2023-04-02T05:49:52.303Z,100737.2
2023-04-02T05:50:57.660Z,100737.93
2023-04-02T05:52:03.021Z,100734.56
2023-04-02T05:53:08.467Z,100733.74
2023-04-02T05:54:13.829Z,100741.99
2023-04-02T05:55:19.248Z,100742.16
2023-04-02T05:56:24.621Z,100749.34
2023-04-02T05:57:49.670Z,100746.59
2023-04-02T05:59:29.674Z,100748.25
2023-04-02T06:00:35.062Z,100757.04
2023-04-02T06:01:40.584Z,100758.89
2023-04-02T06:02:46.035Z,100753.88
2023-04-02T06:03:51.579Z,100753.88
2023-04-02T06:04:57.085Z,100756.73
2023-04-02T06:06:02.550Z,100761.74
2023-04-02T06:07:07.934Z,100761.4
2023-04-02T06:08:13.325Z,100764.77
2023-04-02T06:09:18.706Z,100762.19
2023-04-02T06:10:26.146Z,100767.38
2023-04-02T06:11:31.545Z,100761.67
2023-04-02T06:12:36.981Z,100768.71
2023-04-02T06:13:42.371Z,100770.3
2023-04-02T06:14:47.768Z,100770.13
2023-04-02T06:15:53.179Z,100769.37
2023-04-02T06:16:58.755Z,100779.25
2023-04-02T06:18:04.471Z,100781.35
2023-04-02T06:19:09.907Z,100773.31
2023-04-02T06:20:15.274Z,100783.27
2023-04-02T06:21:20.652Z,100785.95
2023-04-02T06:22:26.019Z,100789.28
2023-04-02T06:23:31.443Z,100788.19
2023-04-02T06:24:36.912Z,100785.27
2023-04-02T06:25:42.295Z,100790.94
2023-04-02T06:26:47.778Z,100789.67
2023-04-02T06:27:53.162Z,100786.3
2023-04-02T06:28:58.551Z,100797.43
2023-04-02T06:30:03.971Z,100803.64
2023-04-02T06:31:09.463Z,100801.8
2023-04-02T06:32:14.969Z,100801.96
2023-04-02T06:33:20.346Z,100803.44
2023-04-02T06:34:25.756Z,100802.23
2023-04-02T06:35:31.204Z,100815.12
2023-04-02T06:36:36.543Z,100809.42
2023-04-02T06:37:41.991Z,100809.31
2023-04-02T06:38:47.426Z,100812.34
2023-04-02T06:39:52.830Z,100817.04
2023-04-02T06:41:00.317Z,100823.22
2023-04-02T06:42:05.670Z,100817.52
2023-04-02T06:43:11.159Z,100824.73
2023-04-02T06:44:16.521Z,100822.53
2023-04-02T06:45:21.932Z,100826
2023-04-02T06:46:27.385Z,100817.96
2023-04-02T06:47:32.943Z,100831.6
2023-04-02T06:48:38.451Z,100824.25
2023-04-02T06:49:43.834Z,100827.23
2023-04-02T06:50:49.223Z,100835.38
2023-04-02T06:51:54.627Z,100837.13
2023-04-02T06:53:00.026Z,100835.27
2023-04-02T06:54:05.407Z,100838.13
2023-04-02T06:55:10.884Z,100834.24
2023-04-02T06:56:16.412Z,100839.88
2023-04-02T06:57:21.923Z,100841.8
2023-04-02T06:58:27.327Z,100847.26
2023-04-02T06:59:32.697Z,100844.55
2023-04-02T07:00:38.086Z,100845.13
2023-04-02T07:01:43.551Z,100844.61
2023-04-02T07:02:49.217Z,100843.2
2023-04-02T07:03:54.684Z,100847.02
2023-04-02T07:05:00.185Z,100852.06
2023-04-02T07:06:05.763Z,100850.42
2023-04-02T07:07:11.215Z,100855.39
2023-04-02T07:08:18.969Z,100848.55
2023-04-02T07:09:24.338Z,100853.53
2023-04-02T07:10:29.785Z,100855.48
2023-04-02T07:11:35.176Z,100856.92
2023-04-02T07:12:40.589Z,100855.85
2023-04-02T07:13:46.008Z,100856.67
2023-04-02T07:14:51.349Z,100864.23
2023-04-02T07:15:57.182Z,100866.47
2023-04-02T07:17:03.174Z,100864.23
2023-04-02T07:18:08.630Z,100858.88
2023-04-02T07:19:14.204Z,100870.01
2023-04-02T07:20:19.749Z,100870.67
2023-04-02T07:21:25.155Z,100869.25
2023-04-02T07:22:30.524Z,100868.91
2023-04-02T07:23:35.909Z,100871.08
2023-04-02T07:24:41.288Z,100872.86
2023-04-02T07:25:46.707Z,100872.52
2023-04-02T07:26:52.068Z,100868.57
2023-04-02T07:27:57.443Z,100876.03
2023-04-02T07:29:02.876Z,100879.8
2023-04-02T07:30:08.334Z,100881.77
2023-04-02T07:31:13.842Z,100880.14
2023-04-02T07:32:19.283Z,100877.84
2023-04-02T07:33:24.682Z,100886.92
2023-04-02T07:34:30.030Z,100875.76
2023-04-02T07:35:36.109Z,100880.67
2023-04-02T07:36:43.027Z,100883.53
2023-04-02T07:37:48.412Z,100886.59
2023-04-02T07:38:53.803Z,100892.61
2023-04-02T07:39:59.188Z,100891.75
2023-04-02T07:41:04.606Z,100899.13
2023-04-02T07:42:12.516Z,100894.84
2023-04-02T07:43:17.971Z,100900.09
2023-04-02T07:44:23.354Z,100896.38
2023-04-02T07:45:28.773Z,100895.88
2023-04-02T07:46:34.251Z,100891.03
2023-04-02T07:47:39.742Z,100908.23
2023-04-02T07:48:45.157Z,100905.97
2023-04-02T07:49:50.528Z,100906.8
2023-04-02T07:50:55.987Z,100906.28
2023-04-02T07:52:01.378Z,100907.45
2023-04-02T07:53:06.790Z,100917.2
2023-04-02T07:54:12.164Z,100917.09
2023-04-02T07:55:17.545Z,100924.2
2023-04-02T07:56:22.926Z,100926.3
2023-04-02T07:57:28.416Z,100921.14
2023-04-02T07:58:33.968Z,100929.77
2023-04-02T07:59:39.351Z,100932.09
2023-04-02T08:00:44.723Z,100931.27
2023-04-02T08:01:50.137Z,100932.16
2023-04-02T08:02:55.966Z,100929.17
2023-04-02T08:04:01.640Z,100934.58
2023-04-02T08:05:07.244Z,100932.06
2023-04-02T08:06:12.620Z,100933.23
2023-04-02T08:07:17.957Z,100933.34
2023-04-02T08:08:23.336Z,100937.08
2023-04-02T08:09:31.055Z,100937.56
2023-04-02T08:10:36.481Z,100939.24
2023-04-02T08:11:41.861Z,100941.51
2023-04-02T08:12:47.302Z,100946.25
2023-04-02T08:13:52.698Z,100945.72
2023-04-02T08:14:58.061Z,100947.64
2023-04-02T08:16:03.443Z,100941.66
2023-04-02T08:17:08.892Z,100953.98
2023-04-02T08:18:14.269Z,100948.01
2023-04-02T08:19:19.660Z,100952.6
2023-04-02T08:20:25.013Z,100953.59
2023-04-02T08:21:30.428Z,100958.67
2023-04-02T08:22:35.892Z,100955.34
2023-04-02T08:23:41.281Z,100955.34
2023-04-02T08:24:46.651Z,100959.25
2023-04-02T08:25:52.040Z,100953.2
2023-04-02T08:26:57.387Z,100964.78
2023-04-02T08:28:02.768Z,100960.06
2023-04-02T08:29:08.137Z,100965.14
2023-04-02T08:30:13.569Z,100964.22
2023-04-02T08:31:19.098Z,100962.87
2023-04-02T08:32:24.540Z,100974.73
2023-04-02T08:33:30.004Z,100968.22
2023-04-02T08:34:35.438Z,100971.72
2023-04-02T08:35:41.291Z,100970.31
2023-04-02T08:36:46.785Z,100965.58
2023-04-02T08:37:52.134Z,100976.88
2023-04-02T08:38:57.492Z,100975.95
2023-04-02T08:40:02.885Z,100974.27
2023-04-02T08:41:08.286Z,100967.75
2023-04-02T08:42:13.659Z,100975.14
2023-04-02T08:43:19.085Z,100977.24
2023-04-02T08:44:26.380Z,100981.28
2023-04-02T08:45:31.726Z,100978.65
2023-04-02T08:46:37.212Z,100980.79
2023-04-02T08:47:42.807Z,100980.59
2023-04-02T08:48:48.259Z,100983.52
2023-04-02T08:49:53.624Z,100979.55
2023-04-02T08:50:58.978Z,100986.98
2023-04-02T08:52:04.335Z,100981.92
2023-04-02T08:53:09.715Z,100987.5
2023-04-02T08:54:15.090Z,100987.88
2023-04-02T08:55:20.466Z,100988.42
2023-04-02T08:56:25.839Z,100981.72
2023-04-02T08:57:31.282Z,100991.59
2023-04-02T08:58:36.781Z,100993.72
2023-04-02T08:59:42.172Z,100990.69
2023-04-02T09:00:47.585Z,100997.36
2023-04-02T09:01:53.151Z,100990.59
2023-04-02T09:02:58.713Z,100994.47
2023-04-02T09:04:04.162Z,100990.3
2023-04-02T09:05:09.671Z,100986.63
2023-04-02T09:06:17.388Z,100994.33
2023-04-02T09:07:22.808Z,101000.18
2023-04-02T09:08:28.191Z,101000.45
2023-04-02T09:09:33.577Z,100998.28
2023-04-02T09:10:39.043Z,100996.53
2023-04-02T09:11:44.616Z,101004.92
2023-04-02T09:12:50.003Z,101000.9
2023-04-02T09:13:55.375Z,101001
2023-04-02T09:15:00.806Z,101005.84
2023-04-02T09:16:06.268Z,101006.7
2023-04-02T09:17:11.755Z,101012.9
2023-04-02T09:18:17.216Z,101010.22
2023-04-02T09:19:22.663Z,101014.52
2023-04-02T09:20:28.058Z,101010.31
2023-04-02T09:21:33.577Z,101019.95
2023-04-02T09:22:38.941Z,101012.66
2023-04-02T09:23:44.316Z,101022.31
2023-04-02T09:24:49.673Z,101023.42
2023-04-02T09:26:05.466Z,101024.34
2023-04-02T09:27:10.893Z,101025.96
2023-04-02T09:28:16.244Z,101026.82
2023-04-02T09:29:21.638Z,101027.72
2023-04-02T09:30:27.021Z,101029.67
2023-04-02T09:31:32.442Z,101033.02
2023-04-02T09:32:40.489Z,101025.83
2023-04-02T09:33:46.156Z,101033.22
2023-04-02T09:34:51.527Z,101037.37
2023-04-02T09:35:56.924Z,101030.47
2023-04-02T09:37:02.352Z,101043.81
2023-04-02T09:38:07.753Z,101035.49
2023-04-02T09:39:13.226Z,101043.78
2023-04-02T09:40:18.615Z,101047.88
2023-04-02T09:41:24.006Z,101045.88
2023-04-02T09:42:29.423Z,101040.75
2023-04-02T09:43:34.815Z,101048.52
2023-04-02T09:44:40.225Z,101048.77
2023-04-02T09:45:45.600Z,101046.59
2023-04-02T09:46:51.021Z,101049.28
2023-04-02T09:47:56.606Z,101051.63
2023-04-02T09:49:02.232Z,101056.33
2023-04-02T09:50:07.616Z,101054.78
2023-04-02T09:51:13.034Z,101056.5
2023-04-02T09:52:18.452Z,101056.5
2023-04-02T09:53:23.862Z,101053.48
2023-04-02T09:54:29.349Z,101064.41
2023-04-02T09:55:35.223Z,101063.14
2023-04-02T09:56:41.181Z,101058.46
2023-04-02T09:57:46.594Z,101060.42
2023-04-02T09:58:52.008Z,101059.16
2023-04-02T09:59:57.365Z,101060.91
2023-04-02T10:01:02.830Z,101063.17
2023-04-02T10:02:08.215Z,101070.73
2023-04-02T10:03:13.590Z,101076.31
2023-04-02T10:04:19.099Z,101076.77
2023-04-02T10:05:40.865Z,101080.89
2023-04-02T10:06:47.242Z,101071.81
2023-04-02T10:07:52.597Z,101073.22
2023-04-02T10:08:57.962Z,101076.48
2023-04-02T10:10:03.436Z,101079
2023-04-02T10:11:08.789Z,101086.48
2023-04-02T10:12:14.166Z,101076.59
2023-04-02T10:13:19.537Z,101077.45
2023-04-02T10:14:24.933Z,101082.7
2023-04-02T10:15:30.400Z,101083.05
2023-04-02T10:16:35.849Z,101085.25
2023-04-02T10:17:41.417Z,101084.16
2023-04-02T10:18:46.884Z,101085.84
2023-04-02T10:19:52.289Z,101092.48
2023-04-02T10:20:57.668Z,101088.31
2023-04-02T10:22:03.049Z,101091.59
2023-04-02T10:23:08.556Z,101083.41
2023-04-02T10:24:13.947Z,101088.53
2023-04-02T10:25:19.315Z,101094.52
2023-04-02T10:26:24.694Z,101087.22
2023-04-02T10:27:30.143Z,101095.34
2023-04-02T10:28:35.491Z,101098.95
2023-04-02T10:29:40.847Z,101103.15
2023-04-02T10:30:46.382Z,101106.69
2023-04-02T10:31:51.834Z,101108.37
2023-04-02T10:32:57.358Z,101103.08
2023-04-02T10:34:02.804Z,101116.56
2023-04-02T10:35:08.190Z,101122.92
2023-04-02T10:36:13.667Z,101110.47
2023-04-02T10:37:19.067Z,101117.08
2023-04-02T10:38:24.493Z,101102.56
2023-04-02T10:39:29.860Z,101107.3
2023-04-02T10:40:35.238Z,101115.17
2023-04-02T10:41:40.628Z,101114
2023-04-02T10:42:46.025Z,101116.34
2023-04-02T10:43:51.435Z,101111.87
2023-04-02T10:44:57.028Z,101117.47
2023-04-02T10:46:02.515Z,101120.16
2023-04-02T10:47:07.982Z,101125.11
2023-04-02T10:48:13.550Z,101121.22
2023-04-02T10:49:18.979Z,101127.17
2023-04-02T10:50:24.416Z,101127.68
2023-04-02T10:51:29.827Z,101131.27
2023-04-02T10:52:35.300Z,101123.73
2023-04-02T10:53:40.735Z,101127.92
2023-04-02T10:54:46.147Z,101137.76
2023-04-02T10:55:51.554Z,101124.69
2023-04-02T10:56:57.001Z,101119.78
2023-04-02T10:58:02.445Z,101126.73
2023-04-02T10:59:07.844Z,101131.31
2023-04-02T11:00:13.346Z,101130.97
2023-04-02T11:01:18.804Z,101128.21
2023-04-02T11:02:24.347Z,101127.42
2023-04-02T11:03:30.106Z,101134.98
2023-04-02T11:04:35.769Z,101139.15
2023-04-02T11:05:41.176Z,101141.77
2023-04-02T11:06:46.597Z,101135.57
2023-04-02T11:07:51.948Z,101135.81
2023-04-02T11:08:57.301Z,101140.36
2023-04-02T11:10:02.728Z,101149.88
2023-04-02T11:11:08.106Z,101141.66
2023-04-02T11:12:13.514Z,101152.31
2023-04-02T11:13:18.931Z,101149.64
2023-04-02T11:14:24.319Z,101150.05
2023-04-02T11:15:29.670Z,101148.78
2023-04-02T11:16:38.847Z,101155.52
2023-04-02T11:17:48.972Z,101157.8
2023-04-02T11:18:54.413Z,101144.96
2023-04-02T11:19:59.793Z,101150.73
2023-04-02T11:21:05.164Z,101150.98
2023-04-02T11:22:10.568Z,101156.34
2023-04-02T11:23:18.965Z,101155.34
2023-04-02T11:24:24.484Z,101152.66
2023-04-02T11:25:29.922Z,101157.58
2023-04-02T11:26:35.319Z,101153.73
2023-04-02T11:27:40.735Z,101163.53
2023-04-02T11:28:46.103Z,101170.47
2023-04-02T11:29:51.686Z,101155.18
2023-04-02T11:30:57.174Z,101155.52
2023-04-02T11:32:02.813Z,101175.47
2023-04-02T11:33:08.366Z,101174.47
2023-04-02T11:34:13.814Z,101180.97
2023-04-02T11:35:19.187Z,101183.52
2023-04-02T11:36:24.691Z,101175.95
2023-04-02T11:37:30.062Z,101175.87
2023-04-02T11:38:35.434Z,101184.41
2023-04-02T11:39:40.801Z,101176.36
2023-04-02T11:40:46.166Z,101180.19
2023-04-02T11:41:51.540Z,101181.01
2023-04-02T11:42:56.926Z,101175.3
2023-04-02T11:44:02.340Z,101188.58
2023-04-02T11:45:07.705Z,101182.22
2023-04-02T11:46:13.162Z,101190.4
2023-04-02T11:47:18.782Z,101193.15
2023-04-02T11:48:24.755Z,101186.44
2023-04-02T11:49:30.471Z,101171.55
2023-04-02T11:50:36.127Z,101202.17
2023-04-02T11:51:41.891Z,101195.05
2023-04-02T11:52:47.475Z,101195.05
2023-04-02T11:53:52.897Z,101203.27
2023-04-02T11:54:58.320Z,101206.95
2023-04-02T11:56:03.699Z,101208.98
2023-04-02T11:57:09.159Z,101202.17
2023-04-02T11:58:14.715Z,101198.08
2023-04-02T11:59:20.074Z,101210.84
2023-04-02T12:00:25.460Z,101213.48
2023-04-02T12:01:30.869Z,101203.51
2023-04-02T12:02:36.446Z,101214.87
2023-04-02T12:03:42.197Z,101202.63
2023-04-02T12:04:47.661Z,101211.95
2023-04-02T12:05:53.111Z,101219.58
2023-04-02T12:06:58.492Z,101218.17
2023-04-02T12:08:03.919Z,101216.14
2023-04-02T12:09:09.353Z,101224.44
2023-04-02T12:10:14.714Z,101222.98
2023-04-02T12:11:20.093Z,101220.65
2023-04-02T12:12:25.455Z,101232.66
2023-04-02T12:13:31.096Z,101223.15
2023-04-02T12:14:36.501Z,101224.09
2023-04-02T12:15:41.910Z,101230.31
2023-04-02T12:16:47.426Z,101229.39
2023-04-02T12:17:53.017Z,101222.41
2023-04-02T12:18:58.467Z,101240.63
2023-04-02T12:20:07.005Z,101229
2023-04-02T12:21:12.386Z,101235.81
2023-04-02T12:22:17.802Z,101230.31
2023-04-02T12:23:23.206Z,101232.93
2023-04-02T12:24:28.583Z,101228.85
2023-04-02T12:25:34.061Z,101238.76
2023-04-02T12:26:39.815Z,101240.19
2023-04-02T12:27:45.198Z,101236.42
2023-04-02T12:28:50.585Z,101243.77
2023-04-02T12:29:55.975Z,101241.73
2023-04-02T12:31:01.563Z,101241.97